createdAt,value
2019-05-29T00:02:18.254Z,99.90
2019-05-29T00:04:47.378Z,99.90
2019-05-29T00:07:16.455Z,99.90
2019-05-29T00:09:45.539Z,99.90
2019-05-29T00:12:18.383Z,99.90
2019-05-29T00:14:45.403Z,99.90
2019-05-29T00:17:14.724Z,99.90
2019-05-29T00:19:43.878Z,99.90
2019-05-29T00:22:13.009Z,99.90
2019-05-29T00:24:42.123Z,99.90
2019-05-29T00:27:12.886Z,99.90
2019-05-29T00:29:41.989Z,99.90
2019-05-29T00:32:11.998Z,99.90
2019-05-29T00:34:41.831Z,99.90
2019-05-29T00:37:10.956Z,99.90
2019-05-29T00:39:39.993Z,99.90
2019-05-29T00:42:09.183Z,99.90
2019-05-29T00:44:38.378Z,99.90
2019-05-29T00:47:07.522Z,99.90
2019-05-29T00:49:36.606Z,99.90
2019-05-29T00:52:05.585Z,99.90
2019-05-29T00:54:34.591Z,99.90
2019-05-29T00:57:03.684Z,99.90
2019-05-29T00:59:32.778Z,99.90
2019-05-29T01:02:01.975Z,99.90
2019-05-29T01:04:31.074Z,99.90
2019-05-29T01:07:00.777Z,99.90
2019-05-29T01:09:29.783Z,99.90
2019-05-29T01:11:58.917Z,99.90
2019-05-29T01:14:27.978Z,99.90
2019-05-29T01:16:57.073Z,99.90
2019-05-29T01:19:26.191Z,99.90
2019-05-29T01:21:58.192Z,99.90
2019-05-29T01:24:27.359Z,99.90
2019-05-29T01:26:56.582Z,99.90
2019-05-29T01:29:25.908Z,99.90
2019-05-29T01:31:55.050Z,99.90
2019-05-29T01:34:24.067Z,99.90
2019-05-29T01:36:53.081Z,99.90
2019-05-29T01:39:23.405Z,99.90
2019-05-29T01:41:52.958Z,99.90
2019-05-29T01:44:22.022Z,99.90
2019-05-29T01:46:51.147Z,99.90
2019-05-29T01:49:21.608Z,99.90
2019-05-29T01:51:50.669Z,99.90
2019-05-29T01:54:19.800Z,99.90
2019-05-29T01:56:48.958Z,99.90
2019-05-29T01:59:18.072Z,99.90
2019-05-29T02:01:47.356Z,99.90
2019-05-29T02:04:17.716Z,99.90
2019-05-29T02:06:47.172Z,99.90
2019-05-29T02:09:16.249Z,99.90
2019-05-29T02:11:45.368Z,99.90
2019-05-29T02:14:14.412Z,99.90
2019-05-29T02:16:43.715Z,99.90
2019-05-29T02:19:12.752Z,99.90
2019-05-29T02:21:41.959Z,99.90
2019-05-29T02:24:11.031Z,99.90
2019-05-29T02:26:40.432Z,99.90
2019-05-29T02:29:09.438Z,99.90
2019-05-29T02:31:38.664Z,99.90
2019-05-29T02:34:07.939Z,99.90
2019-05-29T02:36:37.001Z,99.90
2019-05-29T02:39:07.425Z,99.90
2019-05-29T02:41:36.752Z,99.90
2019-05-29T02:44:06.291Z,99.90
2019-05-29T02:46:35.520Z,99.90
2019-05-29T02:49:04.579Z,99.90
2019-05-29T02:51:33.751Z,99.90
2019-05-29T02:54:02.852Z,99.90
2019-05-29T02:56:31.976Z,99.90
2019-05-29T02:59:01.200Z,99.90
2019-05-29T03:01:31.710Z,99.90
2019-05-29T03:04:00.911Z,99.90
2019-05-29T03:06:30.262Z,99.90
2019-05-29T03:08:59.409Z,99.90
2019-05-29T03:11:29.347Z,99.90
2019-05-29T03:13:59.432Z,99.90
2019-05-29T03:16:30.479Z,99.90
2019-05-29T03:18:59.369Z,99.90
2019-05-29T03:21:28.893Z,99.90
2019-05-29T03:23:59.237Z,99.90
2019-05-29T03:26:29.433Z,99.90
2019-05-29T03:28:59.231Z,99.90
2019-05-29T03:31:36.935Z,99.90
2019-05-29T03:33:59.177Z,99.90
2019-05-29T03:36:31.990Z,99.90
2019-05-29T03:38:59.185Z,99.90
2019-05-29T03:41:28.354Z,99.90
2019-05-29T03:43:57.388Z,99.90
2019-05-29T03:46:37.036Z,99.90
2019-05-29T03:48:57.361Z,99.90
2019-05-29T03:51:27.332Z,99.90
2019-05-29T03:53:57.030Z,99.90
2019-05-29T03:56:26.515Z,99.90
2019-05-29T03:58:55.783Z,99.90
2019-05-29T04:01:26.679Z,99.90
2019-05-29T04:03:56.048Z,99.90
2019-05-29T04:06:26.844Z,99.90
2019-05-29T04:08:56.181Z,99.90
2019-05-29T04:11:25.330Z,99.90
2019-05-29T04:13:54.385Z,99.90
2019-05-29T04:16:23.473Z,99.90
2019-05-29T04:18:52.562Z,99.90
2019-05-29T04:21:21.706Z,99.90
2019-05-29T04:23:50.849Z,99.90
2019-05-29T04:26:19.946Z,99.90
2019-05-29T04:28:49.179Z,99.90
2019-05-29T04:31:18.363Z,99.90
2019-05-29T04:33:47.609Z,99.90
2019-05-29T04:36:16.838Z,99.90
2019-05-29T04:38:45.977Z,99.90
2019-05-29T04:41:15.186Z,99.90
2019-05-29T04:43:44.340Z,99.90
2019-05-29T04:46:13.442Z,99.90
2019-05-29T04:48:42.555Z,99.90
2019-05-29T04:51:11.736Z,99.90
2019-05-29T04:53:40.993Z,99.90
2019-05-29T04:56:10.459Z,99.90
2019-05-29T04:58:40.934Z,99.90
2019-05-29T05:01:09.957Z,99.90
2019-05-29T05:03:39.431Z,99.90
2019-05-29T05:06:08.659Z,99.90
2019-05-29T05:08:37.891Z,99.90
2019-05-29T05:11:07.148Z,99.90
2019-05-29T05:13:37.612Z,99.90
2019-05-29T05:16:07.956Z,99.90
2019-05-29T05:18:37.996Z,99.90
2019-05-29T05:21:07.231Z,99.90
2019-05-29T05:23:36.247Z,99.90
2019-05-29T05:26:05.276Z,99.90
2019-05-29T05:28:34.383Z,99.90
2019-05-29T05:31:03.513Z,99.90
2019-05-29T05:33:32.574Z,99.90
2019-05-29T05:36:01.810Z,99.90
2019-05-29T05:38:31.019Z,99.90
2019-05-29T05:40:59.977Z,99.90
2019-05-29T05:43:29.087Z,99.90
2019-05-29T05:45:58.087Z,99.90
2019-05-29T05:48:27.267Z,99.90
2019-05-29T05:50:56.288Z,99.90
2019-05-29T05:53:25.366Z,99.90
2019-05-29T05:55:54.446Z,99.90
2019-05-29T05:58:23.652Z,99.90
2019-05-29T06:00:52.846Z,99.90
2019-05-29T06:03:21.815Z,99.90
2019-05-29T06:05:50.829Z,99.90
2019-05-29T06:08:19.769Z,99.90
2019-05-29T06:10:51.166Z,99.90
2019-05-29T06:13:19.498Z,99.90
2019-05-29T06:15:48.639Z,99.90
2019-05-29T06:18:21.573Z,99.90
2019-05-29T06:20:48.455Z,99.90
2019-05-29T06:23:17.595Z,99.90
2019-05-29T06:25:46.613Z,99.90
2019-05-29T06:28:15.689Z,99.90
2019-05-29T06:30:45.176Z,99.90
2019-05-29T06:33:14.409Z,99.90
2019-05-29T06:35:43.833Z,99.90
2019-05-29T06:38:12.992Z,99.90
2019-05-29T06:40:43.905Z,99.90
2019-05-29T06:43:23.154Z,99.90
2019-05-29T06:45:52.203Z,99.90
2019-05-29T06:48:42.509Z,99.90
2019-05-29T06:50:58.511Z,99.90
2019-05-29T06:53:27.538Z,99.90
2019-05-29T06:55:57.729Z,99.90
2019-05-29T06:58:27.428Z,99.90
2019-05-29T07:00:56.415Z,99.90
2019-05-29T07:03:25.477Z,99.90
2019-05-29T07:05:54.597Z,99.90
2019-05-29T07:08:37.396Z,99.90
2019-05-29T07:10:54.649Z,99.90
2019-05-29T07:13:23.797Z,99.90
2019-05-29T07:15:52.999Z,99.90
2019-05-29T07:18:22.255Z,99.90
2019-05-29T07:20:51.152Z,99.90
2019-05-29T07:23:20.153Z,99.90
2019-05-29T07:25:49.267Z,99.90
2019-05-29T07:28:18.385Z,99.90
2019-05-29T07:30:57.591Z,99.90
2019-05-29T07:33:18.333Z,99.90
2019-05-29T07:35:47.761Z,99.90
2019-05-29T07:38:16.860Z,99.90
2019-05-29T07:40:48.193Z,99.90
2019-05-29T07:43:16.867Z,99.90
2019-05-29T07:45:46.225Z,99.90
2019-05-29T07:48:15.430Z,99.90
2019-05-29T07:50:44.485Z,99.90
2019-05-29T07:53:13.624Z,99.90
2019-05-29T07:55:42.720Z,99.90
2019-05-29T07:58:11.885Z,99.90
2019-05-29T08:01:01.029Z,99.90
2019-05-29T08:03:11.834Z,99.90
2019-05-29T08:05:41.519Z,99.90
2019-05-29T08:08:11.487Z,99.90
2019-05-29T08:10:41.679Z,99.90
2019-05-29T08:13:10.832Z,99.90
2019-05-29T08:15:54.079Z,99.90
2019-05-29T08:18:10.699Z,99.90
2019-05-29T08:20:39.863Z,99.90
2019-05-29T08:23:08.992Z,99.90
2019-05-29T08:25:38.101Z,99.90
2019-05-29T08:28:07.172Z,99.90
2019-05-29T08:30:36.218Z,99.90
2019-05-29T08:33:05.150Z,99.90
2019-05-29T08:35:34.229Z,99.90
2019-05-29T08:38:03.306Z,99.90
2019-05-29T08:40:32.433Z,99.90
2019-05-29T08:43:01.530Z,99.90
2019-05-29T08:45:30.625Z,99.90
2019-05-29T08:47:59.793Z,99.90
2019-05-29T08:50:28.909Z,99.90
2019-05-29T08:52:58.145Z,99.90
2019-05-29T08:55:27.257Z,99.90
2019-05-29T08:57:56.330Z,99.90
2019-05-29T09:00:25.408Z,99.90
2019-05-29T09:02:54.679Z,99.90
2019-05-29T09:05:23.735Z,99.90
2019-05-29T09:07:54.362Z,99.90
2019-05-29T09:10:23.527Z,99.90
2019-05-29T09:13:03.611Z,99.90
2019-05-29T09:15:24.301Z,99.90
2019-05-29T09:17:53.470Z,99.90
2019-05-29T09:20:43.220Z,99.90
2019-05-29T09:22:53.318Z,99.90
2019-05-29T09:25:23.262Z,99.90
2019-05-29T09:27:52.309Z,99.90
2019-05-29T09:30:21.830Z,99.90
2019-05-29T09:32:53.038Z,99.90
2019-05-29T09:35:23.301Z,99.90
2019-05-29T09:37:52.596Z,99.90
2019-05-29T09:40:22.954Z,99.90
2019-05-29T09:42:52.227Z,97.40
2019-05-29T09:45:21.650Z,98.30
2019-05-29T09:47:50.756Z,98.40
2019-05-29T09:50:23.174Z,99.90
2019-05-29T09:52:51.433Z,97.60
2019-05-29T09:55:20.629Z,99.90
2019-05-29T09:57:49.699Z,99.10
2019-05-29T10:00:18.813Z,99.90
2019-05-29T10:02:48.033Z,99.90
2019-05-29T10:05:17.423Z,99.90
2019-05-29T10:07:46.514Z,99.20
2019-05-29T10:10:17.212Z,99.90
2019-05-29T10:12:46.263Z,99.70
2019-05-29T10:15:16.687Z,99.90
2019-05-29T10:17:45.771Z,99.90
2019-05-29T10:20:16.499Z,98.60
2019-05-29T10:22:45.523Z,97.20
2019-05-29T10:25:14.616Z,97.30
2019-05-29T10:27:43.678Z,99.90
2019-05-29T10:30:13.555Z,96.10
2019-05-29T10:32:43.152Z,99.00
2019-05-29T10:35:13.433Z,96.80
2019-05-29T10:37:42.904Z,99.90
2019-05-29T10:40:12.240Z,99.90
2019-05-29T10:42:41.389Z,98.70
2019-05-29T10:45:10.548Z,98.20
2019-05-29T10:47:39.654Z,97.40
2019-05-29T10:50:08.879Z,99.90
2019-05-29T10:52:38.030Z,99.90
2019-05-29T10:55:07.447Z,96.80
2019-05-29T10:57:36.733Z,97.00
2019-05-29T11:00:06.095Z,96.90
2019-05-29T11:02:35.086Z,97.10
2019-05-29T11:05:04.560Z,93.70
2019-05-29T11:07:33.640Z,93.60
2019-05-29T11:10:02.732Z,93.00
2019-05-29T11:12:31.691Z,92.70
2019-05-29T11:15:00.720Z,90.20
2019-05-29T11:17:29.726Z,90.70
2019-05-29T11:19:58.740Z,95.30
2019-05-29T11:22:27.834Z,91.30
2019-05-29T11:24:58.287Z,90.70
2019-05-29T11:27:27.746Z,95.00
2019-05-29T11:29:57.166Z,98.10
2019-05-29T11:32:26.349Z,95.00
2019-05-29T11:34:55.609Z,96.80
2019-05-29T11:37:24.820Z,94.70
2019-05-29T11:39:54.885Z,91.80
2019-05-29T11:42:27.211Z,90.50
2019-05-29T11:44:55.264Z,91.80
2019-05-29T11:47:24.449Z,92.50
2019-05-29T11:49:53.525Z,91.00
2019-05-29T11:52:25.005Z,91.90
2019-05-29T11:54:56.545Z,92.70
2019-05-29T11:57:24.282Z,92.50
2019-05-29T11:59:53.877Z,93.10
2019-05-29T12:02:23.076Z,91.80
2019-05-29T12:04:53.086Z,90.90
2019-05-29T12:07:22.200Z,88.10
2019-05-29T12:09:51.429Z,89.60
2019-05-29T12:12:20.524Z,91.00
2019-05-29T12:15:00.656Z,84.90
2019-05-29T12:17:20.392Z,82.70
2019-05-29T12:19:49.539Z,81.30
2019-05-29T12:22:18.675Z,78.90
2019-05-29T12:24:47.786Z,91.90
2019-05-29T12:27:17.102Z,80.60
2019-05-29T12:29:46.180Z,84.90
2019-05-29T12:32:15.300Z,81.80
2019-05-29T12:34:53.242Z,84.80
2019-05-29T12:37:15.289Z,74.20
2019-05-29T12:39:44.411Z,78.50
2019-05-29T12:42:13.314Z,84.50
2019-05-29T12:44:42.475Z,77.20
2019-05-29T12:47:11.710Z,79.70
2019-05-29T12:49:40.866Z,79.10
2019-05-29T12:52:10.269Z,82.00
2019-05-29T12:54:40.221Z,85.50
2019-05-29T12:57:09.401Z,83.60
2019-05-29T12:59:43.111Z,85.50
2019-05-29T13:02:12.554Z,90.50
2019-05-29T13:05:06.279Z,90.80
2019-05-29T13:07:12.485Z,91.10
2019-05-29T13:09:41.505Z,90.60
2019-05-29T13:12:10.485Z,91.10
2019-05-29T13:14:39.633Z,92.60
2019-05-29T13:17:08.745Z,87.90
2019-05-29T13:19:37.814Z,84.20
2019-05-29T13:22:06.911Z,86.30
2019-05-29T13:24:36.095Z,84.20
2019-05-29T13:27:06.070Z,82.40
2019-05-29T13:29:35.427Z,78.50
2019-05-29T13:32:06.063Z,78.10
2019-05-29T13:34:35.307Z,79.70
2019-05-29T13:37:07.683Z,76.10
2019-05-29T13:39:35.059Z,72.80
2019-05-29T13:42:08.919Z,68.60
2019-05-29T13:44:34.995Z,71.50
2019-05-29T13:47:04.231Z,65.90
2019-05-29T13:49:33.292Z,65.40
2019-05-29T13:52:08.294Z,70.00
2019-05-29T13:54:33.759Z,67.00
2019-05-29T13:57:04.556Z,74.70
2019-05-29T13:59:33.575Z,70.20
2019-05-29T14:02:04.725Z,71.60
2019-05-29T14:04:33.552Z,70.00
2019-05-29T14:07:03.415Z,69.90
2019-05-29T14:09:33.598Z,63.80
2019-05-29T14:12:03.113Z,63.70
2019-05-29T14:14:32.220Z,63.40
2019-05-29T14:17:02.552Z,65.00
2019-05-29T14:19:31.930Z,66.30
2019-05-29T14:22:01.178Z,67.00
2019-05-29T14:24:30.684Z,64.60
2019-05-29T14:27:01.400Z,65.00
2019-05-29T14:29:30.633Z,62.80
2019-05-29T14:32:00.975Z,63.90
2019-05-29T14:34:30.202Z,60.30
2019-05-29T14:36:59.149Z,62.00
2019-05-29T14:39:28.479Z,64.30
2019-05-29T14:41:57.894Z,64.40
2019-05-29T14:44:27.127Z,67.40
2019-05-29T14:46:56.131Z,69.20
2019-05-29T14:49:26.943Z,69.30
2019-05-29T14:51:56.238Z,71.50
2019-05-29T14:54:40.657Z,73.80
2019-05-29T14:56:56.144Z,73.70
2019-05-29T14:59:25.234Z,72.00
2019-05-29T15:01:54.251Z,71.70
2019-05-29T15:04:23.279Z,68.00
2019-05-29T15:06:52.358Z,65.60
2019-05-29T15:09:21.385Z,67.10
2019-05-29T15:11:51.235Z,68.30
2019-05-29T15:14:20.218Z,67.80
2019-05-29T15:16:49.225Z,66.80
2019-05-29T15:19:18.215Z,69.60
2019-05-29T15:21:47.250Z,70.00
2019-05-29T15:24:16.302Z,69.20
2019-05-29T15:26:45.299Z,67.20
2019-05-29T15:29:16.359Z,70.80
2019-05-29T15:31:44.911Z,72.30
2019-05-29T15:34:14.473Z,70.30
2019-05-29T15:36:43.663Z,65.30
2019-05-29T15:39:12.831Z,63.70
2019-05-29T15:41:41.925Z,62.60
2019-05-29T15:44:11.082Z,65.70
2019-05-29T15:46:40.320Z,68.80
2019-05-29T15:49:10.992Z,71.50
2019-05-29T15:51:40.098Z,72.40
2019-05-29T15:54:09.223Z,74.10
2019-05-29T15:56:38.506Z,75.30
2019-05-29T15:59:07.839Z,75.60
2019-05-29T16:01:38.835Z,76.80
2019-05-29T16:04:07.900Z,77.10
2019-05-29T16:06:37.064Z,77.20
2019-05-29T16:09:08.179Z,77.80
2019-05-29T16:11:37.343Z,76.30
2019-05-29T16:14:06.350Z,71.40
2019-05-29T16:16:35.758Z,72.10
2019-05-29T16:19:04.831Z,75.60
2019-05-29T16:21:33.944Z,75.50
2019-05-29T16:24:02.987Z,76.10
2019-05-29T16:26:32.064Z,77.40
2019-05-29T16:29:01.186Z,78.70
2019-05-29T16:31:30.350Z,79.60
2019-05-29T16:33:59.479Z,73.40
2019-05-29T16:36:28.416Z,71.50
2019-05-29T16:38:57.528Z,72.50
2019-05-29T16:41:26.583Z,76.70
2019-05-29T16:43:55.574Z,78.70
2019-05-29T16:46:24.816Z,81.00
2019-05-29T16:48:54.023Z,81.50
2019-05-29T16:51:23.223Z,82.30
2019-05-29T16:53:52.256Z,82.80
2019-05-29T16:56:21.287Z,81.90
2019-05-29T16:58:50.451Z,82.40
2019-05-29T17:01:21.674Z,82.80
2019-05-29T17:03:50.982Z,83.50
2019-05-29T17:06:20.173Z,83.60
2019-05-29T17:08:49.303Z,84.20
2019-05-29T17:11:18.599Z,84.10
2019-05-29T17:13:47.723Z,84.40
2019-05-29T17:16:16.840Z,87.30
2019-05-29T17:18:46.021Z,85.60
2019-05-29T17:21:15.100Z,85.50
2019-05-29T17:23:44.096Z,84.40
2019-05-29T17:26:14.305Z,84.10
2019-05-29T17:28:43.680Z,83.40
2019-05-29T17:31:12.738Z,85.10
2019-05-29T17:33:41.924Z,86.30
2019-05-29T17:36:10.949Z,84.30
2019-05-29T17:38:40.040Z,84.10
2019-05-29T17:41:09.107Z,84.80
2019-05-29T17:43:38.176Z,85.80
2019-05-29T17:46:07.230Z,86.20
2019-05-29T17:48:36.501Z,86.20
2019-05-29T17:51:05.549Z,89.40
2019-05-29T17:53:34.454Z,90.90
2019-05-29T17:56:03.559Z,91.30
2019-05-29T17:58:32.580Z,91.90
2019-05-29T18:01:01.681Z,92.20
2019-05-29T18:03:30.781Z,91.80
2019-05-29T18:05:59.786Z,91.90
2019-05-29T18:08:28.853Z,91.80
2019-05-29T18:10:57.994Z,91.90
2019-05-29T18:13:27.451Z,90.60
2019-05-29T18:15:56.595Z,91.50
2019-05-29T18:18:25.800Z,91.70
2019-05-29T18:20:54.957Z,92.20
2019-05-29T18:23:24.274Z,93.10
2019-05-29T18:25:53.437Z,92.20
2019-05-29T18:28:22.565Z,91.70
2019-05-29T18:30:51.751Z,92.90
2019-05-29T18:33:20.899Z,93.60
2019-05-29T18:35:50.047Z,93.70
2019-05-29T18:38:20.145Z,93.90
2019-05-29T18:40:49.258Z,93.80
2019-05-29T18:43:18.376Z,92.50
2019-05-29T18:45:47.345Z,93.30
2019-05-29T18:48:16.363Z,93.60
2019-05-29T18:50:45.520Z,93.40
2019-05-29T18:53:14.581Z,93.30
2019-05-29T18:55:43.566Z,93.30
2019-05-29T18:58:12.628Z,93.90
2019-05-29T19:00:41.619Z,94.10
2019-05-29T19:03:10.642Z,94.40
2019-05-29T19:05:39.814Z,94.70
2019-05-29T19:08:08.800Z,94.90
2019-05-29T19:10:37.902Z,94.70
2019-05-29T19:13:07.188Z,95.40
2019-05-29T19:15:36.325Z,95.60
2019-05-29T19:18:05.405Z,96.40
2019-05-29T19:20:34.506Z,96.80
2019-05-29T19:23:03.572Z,97.30
2019-05-29T19:25:33.013Z,97.60
2019-05-29T19:28:02.294Z,98.40
2019-05-29T19:30:31.432Z,99.10
2019-05-29T19:33:00.358Z,99.30
2019-05-29T19:35:29.655Z,99.90
2019-05-29T19:37:58.664Z,99.90
2019-05-29T19:40:28.117Z,99.90
2019-05-29T19:42:57.176Z,99.90
2019-05-29T19:45:26.554Z,99.90
2019-05-29T19:47:55.796Z,99.90
2019-05-29T19:50:26.697Z,99.90
2019-05-29T19:52:55.870Z,99.90
2019-05-29T19:55:25.562Z,99.90
2019-05-29T19:57:56.572Z,99.90
2019-05-29T20:00:25.994Z,99.90
2019-05-29T20:02:55.163Z,99.90
2019-05-29T20:05:24.163Z,99.90
2019-05-29T20:07:53.221Z,99.90
2019-05-29T20:10:22.258Z,99.90
2019-05-29T20:12:51.268Z,99.90
2019-05-29T20:15:20.320Z,99.90
2019-05-29T20:17:49.369Z,99.90
2019-05-29T20:20:18.372Z,99.90
2019-05-29T20:22:47.521Z,99.90
2019-05-29T20:25:16.818Z,99.90
2019-05-29T20:27:45.947Z,99.90
2019-05-29T20:30:18.083Z,99.90
2019-05-29T20:32:47.299Z,99.90
2019-05-29T20:35:16.717Z,99.90
2019-05-29T20:37:45.930Z,99.90
2019-05-29T20:40:14.973Z,99.90
2019-05-29T20:42:44.065Z,99.90
2019-05-29T20:45:13.188Z,99.90
2019-05-29T20:47:42.367Z,99.90
2019-05-29T20:50:11.452Z,99.90
2019-05-29T20:52:41.425Z,99.90
2019-05-29T20:55:10.711Z,99.90
2019-05-29T20:57:40.084Z,99.90
2019-05-29T21:00:09.622Z,99.90
2019-05-29T21:02:38.810Z,99.90
2019-05-29T21:05:07.925Z,99.90
2019-05-29T21:07:37.003Z,99.90
2019-05-29T21:10:06.218Z,99.90
2019-05-29T21:12:35.271Z,99.90
2019-05-29T21:15:04.479Z,99.90
2019-05-29T21:17:33.782Z,99.90
2019-05-29T21:20:02.893Z,99.90
2019-05-29T21:22:32.003Z,99.90
2019-05-29T21:25:07.432Z,99.90
2019-05-29T21:27:31.915Z,99.90
2019-05-29T21:30:00.967Z,99.90
2019-05-29T21:32:30.111Z,99.90
2019-05-29T21:34:59.291Z,99.90
2019-05-29T21:37:28.319Z,99.90
2019-05-29T21:39:57.503Z,99.90
2019-05-29T21:42:26.721Z,99.90
2019-05-29T21:44:55.789Z,99.90
2019-05-29T21:47:24.847Z,99.90
2019-05-29T21:49:53.894Z,99.90
2019-05-29T21:52:22.961Z,99.90
2019-05-29T21:54:52.083Z,99.90
2019-05-29T21:57:21.317Z,99.90
2019-05-29T21:59:50.433Z,99.90
2019-05-29T22:02:19.553Z,99.90
2019-05-29T22:04:48.771Z,99.90
2019-05-29T22:07:17.892Z,99.90
2019-05-29T22:09:47.092Z,99.90
2019-05-29T22:12:16.116Z,99.90
2019-05-29T22:14:45.211Z,99.90
2019-05-29T22:17:14.436Z,99.90
2019-05-29T22:19:43.613Z,99.90
2019-05-29T22:22:12.722Z,99.90
2019-05-29T22:24:41.925Z,99.90
2019-05-29T22:27:10.920Z,99.90
2019-05-29T22:29:40.001Z,99.90
2019-05-29T22:32:09.435Z,99.90
2019-05-29T22:34:38.545Z,99.90
2019-05-29T22:37:07.571Z,99.90
2019-05-29T22:39:36.677Z,99.90
2019-05-29T22:42:08.540Z,99.90
2019-05-29T22:44:37.674Z,99.90
2019-05-29T22:47:06.888Z,99.90
2019-05-29T22:49:35.934Z,99.90
2019-05-29T22:52:04.970Z,99.90
2019-05-29T22:54:34.121Z,99.90
2019-05-29T22:57:03.154Z,99.90
2019-05-29T22:59:32.522Z,99.90
2019-05-29T23:02:02.582Z,99.90
2019-05-29T23:04:31.840Z,99.90
2019-05-29T23:07:00.868Z,99.90
2019-05-29T23:09:29.958Z,99.90
2019-05-29T23:11:58.982Z,99.90
2019-05-29T23:14:28.126Z,99.90
2019-05-29T23:16:58.467Z,99.90
2019-05-29T23:19:27.648Z,99.90
2019-05-29T23:21:56.652Z,99.90
2019-05-29T23:24:25.845Z,99.90
2019-05-29T23:26:55.055Z,99.90
2019-05-29T23:29:24.166Z,99.90
2019-05-29T23:31:53.262Z,99.90
2019-05-29T23:34:22.285Z,99.90
2019-05-29T23:36:51.277Z,99.90
2019-05-29T23:39:20.302Z,99.90
2019-05-29T23:41:49.342Z,99.90
2019-05-29T23:44:18.435Z,99.90
2019-05-29T23:46:47.481Z,99.90
2019-05-29T23:49:16.579Z,99.90
2019-05-29T23:51:45.684Z,99.90
2019-05-29T23:54:14.703Z,99.90
2019-05-29T23:56:43.884Z,99.90
2019-05-29T23:59:12.903Z,99.90
